Time;durP1;ratioP1;P1;durP2;ratioP2;P2;SDS_P1;SDS_P2;PMS_P1;PMS_P2;Temp;Humidity;BMP_temperature;BMP_pressure;BME280_temperature;BME280_humidity;BME280_pressure;Samples;Min_cycle;Max_cycle;Signal;HPM_P1;HPM_P2
2023/06/12 00:01:04;;;;;;;;;;;;;;;11.45;64.75;102132.10;107067;1262;124892;-86
2023/06/12 00:04:25;;;;;;;;;;;;;;;11.44;64.74;102133.27;107112;1260;73785;-86
2023/06/12 00:06:52;;;;;;;;;;;;;;;11.42;64.78;102134.05;107023;1264;125643;-87
2023/06/12 00:09:19;;;;;;;;;;;;;;;11.41;64.97;102134.38;107000;1263;61277;-87
2023/06/12 00:12:03;;;;;;;;;;;;;;;11.41;64.93;102132.39;107016;1260;74583;-87
2023/06/12 00:14:39;;;;;;;;;;;;;;;11.40;65.04;102134.66;106828;1262;125407;-86
2023/06/12 00:17:07;;;;;;;;;;;;;;;11.39;64.91;102135.85;106749;1260;72717;-87
2023/06/12 00:19:33;;;;;;;;;;;;;;;11.38;65.00;102133.50;106910;1264;125024;-85
2023/06/12 00:22:00;;;;;;;;;;;;;;;11.37;64.99;102128.55;107066;1263;60124;-86
2023/06/12 00:24:46;;;;;;;;;;;;;;;11.34;65.01;102128.63;107014;1260;124961;-85
2023/06/12 00:27:19;;;;;;;;;;;;;;;11.32;64.89;102130.97;106960;1265;65443;-86
2023/06/12 00:29:45;;;;;;;;;;;;;;;11.31;64.93;102126.36;106965;1262;72706;-85
2023/06/12 00:32:11;;;;;;;;;;;;;;;11.29;64.94;102124.34;106795;1260;125296;-86
2023/06/12 00:34:40;;;;;;;;;;;;;;;11.27;64.96;102123.73;106985;1260;61104;-86
2023/06/12 00:37:12;;;;;;;;;;;;;;;11.25;64.97;102125.58;106927;1264;124912;-86
2023/06/12 00:39:50;;;;;;;;;;;;;;;11.24;64.96;102126.92;107013;1264;67747;-86
2023/06/12 00:42:35;;;;;;;;;;;;;;;11.22;65.02;102128.80;106825;1265;125430;-86
2023/06/12 00:45:24;;;;;;;;;;;;;;;11.21;65.11;102128.52;106935;1260;62163;-87
2023/06/12 00:48:00;;;;;;;;;;;;;;;11.18;65.09;102128.23;106987;1262;60100;-87
2023/06/12 00:50:33;;;;;;;;;;;;;;;11.16;65.08;102125.54;107014;1259;124188;-86
2023/06/12 00:52:59;;;;;;;;;;;;;;;11.14;65.08;102121.91;107014;1261;65852;-86
2023/06/12 00:55:25;;;;;;;;;;;;;;;11.11;65.11;102119.31;106983;1265;124241;-86
2023/06/12 00:57:52;;;;;;;;;;;;;;;11.08;65.07;102121.48;106933;1267;60825;-87
2023/06/12 01:00:19;;;;;;;;;;;;;;;11.05;65.13;102125.04;107016;1264;124508;-85
2023/06/12 01:02:50;;;;;;;;;;;;;;;11.02;65.26;102122.95;106795;1266;73271;-85
2023/06/12 01:05:33;;;;;;;;;;;;;;;10.98;65.25;102121.91;107057;1260;65528;-85
2023/06/12 01:08:17;;;;;;;;;;;;;;;10.93;65.22;102121.33;107428;1262;124076;-83
2023/06/12 01:10:47;;;;;;;;;;;;;;;10.88;65.25;102121.98;107545;1260;59628;-86
2023/06/12 01:13:16;;;;;;;;;;;;;;;10.84;65.38;102119.66;106806;1267;124277;-85
2023/06/12 01:15:43;;;;;;;;;;;;;;;10.79;65.42;102117.73;106812;1260;74998;-86
2023/06/12 01:18:23;;;;;;;;;;;;;;;10.75;65.50;102115.41;107022;1264;66817;-86
2023/06/12 01:21:14;;;;;;;;;;;;;;;10.71;65.55;102115.57;106977;1264;73945;-87
2023/06/12 01:23:46;;;;;;;;;;;;;;;10.66;65.59;102114.48;106804;1261;61836;-87
2023/06/12 01:26:33;;;;;;;;;;;;;;;10.61;65.61;102116.73;106611;1261;124265;-86
2023/06/12 01:29:19;;;;;;;;;;;;;;;10.57;65.77;102112.30;106826;1261;74415;-85
2023/06/12 01:32:05;;;;;;;;;;;;;;;10.53;65.76;102113.17;106821;1265;124456;-86
2023/06/12 01:34:53;;;;;;;;;;;;;;;10.47;65.79;102117.99;106847;1262;72705;-85
2023/06/12 01:37:43;;;;;;;;;;;;;;;10.43;65.82;102115.67;106908;1261;124246;-86
2023/06/12 01:40:28;;;;;;;;;;;;;;;10.38;65.99;102116.48;107127;1264;59557;-86
2023/06/12 01:43:00;;;;;;;;;;;;;;;10.34;66.00;102113.66;107018;1261;124315;-86
2023/06/12 01:45:29;;;;;;;;;;;;;;;10.29;66.06;102110.80;107201;1263;65930;-85
2023/06/12 01:47:55;;;;;;;;;;;;;;;10.27;66.17;102116.29;107034;1260;71432;-82
2023/06/12 01:50:23;;;;;;;;;;;;;;;10.24;66.27;102112.62;107103;1264;124159;-82
2023/06/12 01:52:50;;;;;;;;;;;;;;;10.21;66.31;102109.70;107127;1264;61163;-82
2023/06/12 01:55:19;;;;;;;;;;;;;;;10.19;66.29;102108.88;106902;1268;124379;-83
2023/06/12 01:57:48;;;;;;;;;;;;;;;10.17;66.38;102110.02;107168;1266;67748;-85
2023/06/12 02:00:16;;;;;;;;;;;;;;;10.16;66.38;102109.43;107381;1260;72484;-85
2023/06/12 02:02:53;;;;;;;;;;;;;;;10.14;66.47;102108.48;107046;1262;124105;-86
2023/06/12 02:05:20;;;;;;;;;;;;;;;10.15;66.54;102109.02;107183;1260;60038;-85
2023/06/12 02:07:52;;;;;;;;;;;;;;;10.13;66.59;102108.42;107170;1263;124100;-85
2023/06/12 02:10:32;;;;;;;;;;;;;;;10.12;66.61;102111.71;107511;1260;65491;-85
2023/06/12 02:12:59;;;;;;;;;;;;;;;10.11;66.62;102106.92;106862;1264;125624;-86
2023/06/12 02:15:34;;;;;;;;;;;;;;;10.11;66.74;102108.17;107074;1260;61258;-85
2023/06/12 02:18:01;;;;;;;;;;;;;;;10.13;66.89;102105.98;107364;1260;61292;-82
2023/06/12 02:20:27;;;;;;;;;;;;;;;10.16;67.01;102107.88;106870;1260;125290;-85
2023/06/12 02:22:53;;;;;;;;;;;;;;;10.19;66.96;102105.06;107093;1260;59919;-85
2023/06/12 02:25:20;;;;;;;;;;;;;;;10.22;67.05;102103.95;107055;1260;125383;-82
2023/06/12 02:27:47;;;;;;;;;;;;;;;10.27;67.00;102107.16;108653;1260;59989;-84
2023/06/12 02:30:13;;;;;;;;;;;;;;;10.33;67.08;102110.46;108662;1260;60576;-84
2023/06/12 02:32:40;;;;;;;;;;;;;;;10.39;67.17;102110.22;108478;1260;125480;-82
2023/06/12 02:35:14;;;;;;;;;;;;;;;10.44;67.09;102113.63;107042;1261;61526;-86
2023/06/12 02:37:46;;;;;;;;;;;;;;;10.51;67.20;102112.55;107510;1263;125350;-84
2023/06/12 02:40:16;;;;;;;;;;;;;;;10.58;67.16;102111.98;107363;1260;59350;-86
2023/06/12 02:42:43;;;;;;;;;;;;;;;10.64;67.15;102117.36;107300;1260;125478;-83
2023/06/12 02:45:13;;;;;;;;;;;;;;;10.71;67.13;102120.52;106965;1265;73895;-83
2023/06/12 02:47:42;;;;;;;;;;;;;;;10.78;67.10;102119.58;106990;1260;65966;-84
2023/06/12 02:50:09;;;;;;;;;;;;;;;10.85;67.04;102115.87;107048;1261;125575;-85
2023/06/12 02:52:36;;;;;;;;;;;;;;;10.92;67.10;102119.72;107071;1261;62177;-84
2023/06/12 02:55:04;;;;;;;;;;;;;;;11.00;67.04;102118.12;106996;1261;125390;-84
2023/06/12 02:57:32;;;;;;;;;;;;;;;11.07;67.01;102116.70;107175;1261;74683;-83
2023/06/12 02:59:58;;;;;;;;;;;;;;;11.16;67.02;102119.53;106951;1261;67154;-84
2023/06/12 03:02:24;;;;;;;;;;;;;;;11.25;67.01;102122.59;107013;1261;125689;-85
2023/06/12 03:05:04;;;;;;;;;;;;;;;11.37;66.95;102122.77;107139;1260;59699;-86
2023/06/12 03:07:40;;;;;;;;;;;;;;;11.48;66.88;102125.38;106863;1261;124774;-86
2023/06/12 03:10:12;;;;;;;;;;;;;;;11.60;66.79;102125.86;106985;1260;74837;-86
2023/06/12 03:12:41;;;;;;;;;;;;;;;11.75;66.77;102129.63;106916;1260;125193;-86
2023/06/12 03:15:07;;;;;;;;;;;;;;;11.88;66.75;102132.33;106995;1260;72743;-86
2023/06/12 03:17:42;;;;;;;;;;;;;;;12.02;66.60;102137.86;107013;1260;59692;-86
2023/06/12 03:20:09;;;;;;;;;;;;;;;12.18;66.46;102137.10;107141;1261;125385;-86
2023/06/12 03:22:42;;;;;;;;;;;;;;;12.36;66.40;102142.73;107213;1260;74468;-87
2023/06/12 03:25:21;;;;;;;;;;;;;;;12.59;66.34;102139.58;106831;1261;124859;-87
2023/06/12 03:27:49;;;;;;;;;;;;;;;13.18;67.14;102142.16;106891;1260;72676;-87
2023/06/12 03:30:15;;;;;;;;;;;;;;;14.05;66.72;102140.08;107075;1261;61158;-87
2023/06/12 03:32:42;;;;;;;;;;;;;;;14.79;65.63;102135.56;107303;1261;124783;-85
2023/06/12 03:35:11;;;;;;;;;;;;;;;14.99;64.06;102133.66;107247;1266;75265;-84
2023/06/12 03:37:37;;;;;;;;;;;;;;;14.99;63.35;102135.96;107471;1261;124843;-84
2023/06/12 03:40:04;;;;;;;;;;;;;;;14.98;62.89;102137.36;107325;1260;60298;-84
2023/06/12 03:42:31;;;;;;;;;;;;;;;15.04;62.67;102135.58;107068;1260;124772;-83
2023/06/12 03:44:57;;;;;;;;;;;;;;;15.21;62.59;102136.41;107565;1261;61396;-85
2023/06/12 03:47:23;;;;;;;;;;;;;;;15.74;63.02;102138.02;107557;1260;60601;-85
2023/06/12 03:49:50;;;;;;;;;;;;;;;17.55;64.58;102131.73;107352;1261;124154;-88
2023/06/12 03:52:18;;;;;;;;;;;;;;;20.05;63.64;102127.56;107111;1260;61188;-88
2023/06/12 03:54:47;;;;;;;;;;;;;;;22.46;61.09;102123.86;106884;1261;124339;-85
2023/06/12 03:57:13;;;;;;;;;;;;;;;24.48;57.82;102125.30;106907;1261;60997;-87
2023/06/12 03:59:40;;;;;;;;;;;;;;;26.12;55.23;102123.73;106919;1260;61987;-87
2023/06/12 04:02:07;;;;;;;;;;;;;;;27.68;52.65;102125.36;106834;1260;124173;-84
2023/06/12 04:04:33;;;;;;;;;;;;;;;29.05;50.32;102125.79;106909;1260;71728;-87
2023/06/12 04:07:01;;;;;;;;;;;;;;;30.25;47.87;102128.42;107394;1264;124361;-85
2023/06/12 04:09:27;;;;;;;;;;;;;;;31.31;46.01;102128.95;107383;1260;61321;-86
2023/06/12 04:11:56;;;;;;;;;;;;;;;32.38;43.74;102130.83;107119;1260;60247;-84
2023/06/12 04:14:22;;;;;;;;;;;;;;;33.01;41.29;102129.98;106946;1260;124730;-86
2023/06/12 04:16:48;;;;;;;;;;;;;;;33.51;39.86;102128.27;106691;1260;59687;-90
2023/06/12 04:19:14;;;;;;;;;;;;;;;34.20;38.39;102127.13;106855;1260;124828;-86
2023/06/12 04:21:42;;;;;;;;;;;;;;;34.70;36.91;102125.21;107310;1260;59497;-87
2023/06/12 04:24:15;;;;;;;;;;;;;;;35.19;35.88;102127.96;107150;1260;66410;-86
2023/06/12 04:26:55;;;;;;;;;;;;;;;35.96;34.80;102132.77;107018;1260;124442;-85
2023/06/12 04:29:24;;;;;;;;;;;;;;;36.58;33.49;102131.35;107162;1260;64644;-85
2023/06/12 04:31:59;;;;;;;;;;;;;;;37.35;32.52;102128.09;106883;1260;124253;-88
2023/06/12 04:34:26;;;;;;;;;;;;;;;38.11;31.37;102126.76;106759;1264;61296;-86
2023/06/12 04:37:19;;;;;;;;;;;;;;;38.44;30.01;102127.73;106892;1260;61322;-85
2023/06/12 04:39:47;;;;;;;;;;;;;;;38.78;28.91;102128.08;106724;1260;60048;-85
2023/06/12 04:42:16;;;;;;;;;;;;;;;39.16;28.38;102133.00;107423;1260;62799;-83
2023/06/12 04:44:43;;;;;;;;;;;;;;;39.51;27.56;102133.71;107615;1260;124598;-82
2023/06/12 04:47:10;;;;;;;;;;;;;;;39.99;26.77;102135.52;107219;1261;60068;-83
2023/06/12 04:49:43;;;;;;;;;;;;;;;40.31;26.04;102143.14;106953;1261;124362;-84
2023/06/12 04:52:12;;;;;;;;;;;;;;;40.42;25.20;102145.38;107041;1260;61347;-82
2023/06/12 04:54:41;;;;;;;;;;;;;;;40.40;24.82;102145.77;107170;1260;124891;-81
2023/06/12 04:57:16;;;;;;;;;;;;;;;40.65;24.37;102146.36;106863;1260;59229;-86
2023/06/12 04:59:44;;;;;;;;;;;;;;;40.92;24.02;102145.56;106780;1260;61273;-86
2023/06/12 05:02:11;;;;;;;;;;;;;;;41.42;23.62;102146.07;106818;1260;124277;-83
2023/06/12 05:04:48;;;;;;;;;;;;;;;41.78;23.01;102145.81;107124;1260;60428;-86
2023/06/12 05:07:19;;;;;;;;;;;;;;;41.76;22.40;102150.05;106800;1260;125040;-84
2023/06/12 05:09:45;;;;;;;;;;;;;;;41.98;22.16;102148.48;107040;1260;60346;-84
2023/06/12 05:12:12;;;;;;;;;;;;;;;42.47;21.56;102147.17;107179;1260;59940;-86
2023/06/12 05:14:44;;;;;;;;;;;;;;;43.03;21.09;102149.90;106650;1260;124246;-89
2023/06/12 05:17:12;;;;;;;;;;;;;;;43.45;20.50;102148.77;106783;1260;61272;-87
2023/06/12 05:19:40;;;;;;;;;;;;;;;43.52;19.88;102144.61;106792;1261;124193;-84
2023/06/12 05:22:09;;;;;;;;;;;;;;;43.63;19.63;102148.06;107092;1261;61418;-86
2023/06/12 05:24:35;;;;;;;;;;;;;;;43.80;18.99;102147.56;107198;1261;125391;-86
2023/06/12 05:27:02;;;;;;;;;;;;;;;43.60;18.64;102144.63;107158;1261;61778;-83
2023/06/12 05:29:28;;;;;;;;;;;;;;;43.77;18.38;102141.26;107156;1260;61037;-83
2023/06/12 05:31:54;;;;;;;;;;;;;;;44.17;18.14;102139.80;106945;1260;124152;-84
2023/06/12 05:34:21;;;;;;;;;;;;;;;44.48;17.63;102141.81;107007;1260;61855;-83
2023/06/12 05:36:47;;;;;;;;;;;;;;;44.47;17.22;102138.89;107262;1260;124844;-83
2023/06/12 05:39:14;;;;;;;;;;;;;;;44.43;16.83;102136.33;107282;1260;61162;-85
2023/06/12 05:41:41;;;;;;;;;;;;;;;42.72;16.11;102131.54;106874;1260;60279;-83
2023/06/12 05:44:09;;;;;;;;;;;;;;;39.98;16.30;102130.83;106779;1260;124584;-84
2023/06/12 05:46:40;;;;;;;;;;;;;;;37.14;16.57;102129.21;106759;1265;61340;-85
2023/06/12 05:49:14;;;;;;;;;;;;;;;34.24;17.60;102125.66;106849;1260;124326;-88
2023/06/12 05:51:50;;;;;;;;;;;;;;;32.19;18.78;102126.17;106978;1260;64679;-88
2023/06/12 05:54:17;;;;;;;;;;;;;;;30.77;19.72;102125.79;106989;1260;59857;-88
2023/06/12 05:56:45;;;;;;;;;;;;;;;29.29;20.50;102130.08;106846;1260;124675;-85
2023/06/12 05:59:12;;;;;;;;;;;;;;;28.00;21.57;102131.25;107064;1260;59971;-85
2023/06/12 06:01:39;;;;;;;;;;;;;;;27.01;22.30;102128.87;106900;1261;124485;-83
2023/06/12 06:04:10;;;;;;;;;;;;;;;26.10;23.05;102129.02;107199;1260;74250;-86
2023/06/12 06:06:38;;;;;;;;;;;;;;;25.37;23.66;102133.75;107201;1260;124831;-85
2023/06/12 06:09:05;;;;;;;;;;;;;;;24.69;24.24;102132.10;107105;1261;73422;-85
2023/06/12 06:11:32;;;;;;;;;;;;;;;24.15;24.93;102137.16;107191;1266;61143;-84
2023/06/12 06:13:58;;;;;;;;;;;;;;;23.64;25.40;102136.66;107161;1260;124830;-85
2023/06/12 06:16:25;;;;;;;;;;;;;;;23.23;26.11;102137.27;107252;1260;59754;-84
2023/06/12 06:18:51;;;;;;;;;;;;;;;22.91;26.76;102137.92;107050;1263;124308;-85
2023/06/12 06:21:23;;;;;;;;;;;;;;;22.57;27.19;102138.95;106922;1260;72543;-87
2023/06/12 06:23:50;;;;;;;;;;;;;;;22.27;27.64;102143.63;106801;1260;61034;-87
2023/06/12 06:26:16;;;;;;;;;;;;;;;21.96;28.01;102141.13;106767;1261;124106;-87
2023/06/12 06:28:44;;;;;;;;;;;;;;;21.80;28.54;102143.45;107037;1260;61367;-87
2023/06/12 06:31:12;;;;;;;;;;;;;;;21.69;28.85;102141.66;106967;1263;124650;-86
2023/06/12 06:33:39;;;;;;;;;;;;;;;21.48;29.20;102144.11;107025;1261;71617;-84
2023/06/12 06:36:10;;;;;;;;;;;;;;;21.29;29.73;102144.77;106961;1260;61365;-87
2023/06/12 06:38:36;;;;;;;;;;;;;;;21.20;29.98;102141.70;106925;1260;124109;-84
2023/06/12 06:41:03;;;;;;;;;;;;;;;21.12;30.36;102141.14;107154;1261;74932;-84
2023/06/12 06:43:30;;;;;;;;;;;;;;;20.94;30.59;102140.35;107044;1260;124501;-87
2023/06/12 06:46:03;;;;;;;;;;;;;;;20.81;30.88;102140.48;107160;1260;72287;-87
2023/06/12 06:48:30;;;;;;;;;;;;;;;20.72;31.29;102140.80;107140;1261;125717;-87
2023/06/12 06:50:57;;;;;;;;;;;;;;;20.71;31.58;102141.68;107616;1260;59912;-84
2023/06/12 06:53:23;;;;;;;;;;;;;;;20.73;31.86;102143.11;108489;1261;74616;-85
2023/06/12 06:55:50;;;;;;;;;;;;;;;20.74;31.89;102146.16;106835;1260;124134;-86
2023/06/12 06:58:16;;;;;;;;;;;;;;;20.73;32.05;102144.36;107095;1260;62054;-91
2023/06/12 07:00:43;;;;;;;;;;;;;;;20.73;32.23;102143.48;106661;1260;124490;-86
2023/06/12 07:03:10;;;;;;;;;;;;;;;20.73;32.44;102144.36;106918;1261;60614;-86
2023/06/12 07:05:40;;;;;;;;;;;;;;;20.70;32.44;102141.67;106782;1260;74968;-86
2023/06/12 07:08:26;;;;;;;;;;;;;;;20.60;32.57;102145.35;106953;1261;123391;-85
2023/06/12 07:10:53;;;;;;;;;;;;;;;20.53;32.74;102140.66;106978;1260;72503;-87
2023/06/12 07:13:32;;;;;;;;;;;;;;;20.55;32.85;102143.88;106844;1260;124521;-86
2023/06/12 07:15:58;;;;;;;;;;;;;;;20.47;32.72;102145.08;106948;1260;61168;-85
2023/06/12 07:18:25;;;;;;;;;;;;;;;20.44;33.15;102144.17;107292;1260;73492;-87
2023/06/12 07:20:51;;;;;;;;;;;;;;;20.47;33.22;102143.99;106749;1263;124366;-87
2023/06/12 07:23:24;;;;;;;;;;;;;;;20.54;33.31;102141.02;106779;1260;61333;-85
2023/06/12 07:25:52;;;;;;;;;;;;;;;20.58;33.23;102143.01;107006;1260;124442;-85
2023/06/12 07:28:19;;;;;;;;;;;;;;;20.63;33.43;102143.95;106939;1260;60439;-85
2023/06/12 07:30:45;;;;;;;;;;;;;;;20.64;33.41;102144.31;106775;1260;61296;-86
2023/06/12 07:33:14;;;;;;;;;;;;;;;20.66;33.34;102144.52;106940;1260;61148;-86
2023/06/12 07:35:41;;;;;;;;;;;;;;;20.70;33.19;102148.63;106942;1260;72313;-86
2023/06/12 07:38:07;;;;;;;;;;;;;;;20.65;33.16;102141.29;106928;1260;61251;-85
2023/06/12 07:40:37;;;;;;;;;;;;;;;20.67;33.27;102142.19;107024;1260;59831;-86
2023/06/12 07:43:05;;;;;;;;;;;;;;;20.71;33.41;102140.79;106943;1260;73070;-85
2023/06/12 07:45:32;;;;;;;;;;;;;;;20.70;33.42;102140.23;106973;1260;67082;-85
2023/06/12 07:47:58;;;;;;;;;;;;;;;20.68;33.27;102138.63;106934;1260;72706;-86
2023/06/12 07:51:02;;;;;;;;;;;;;;;20.67;33.09;102134.52;106898;1261;124628;-86
2023/06/12 07:53:34;;;;;;;;;;;;;;;20.67;32.95;102136.13;107325;1260;61501;-87
2023/06/12 07:56:01;;;;;;;;;;;;;;;20.67;32.67;102132.20;107101;1261;124557;-86
2023/06/12 07:58:30;;;;;;;;;;;;;;;20.69;32.97;102134.89;107595;1260;65047;-87
2023/06/12 08:00:59;;;;;;;;;;;;;;;20.68;32.38;102139.16;107398;1260;124892;-85
2023/06/12 08:03:28;;;;;;;;;;;;;;;20.67;32.31;102136.66;107501;1260;61199;-85
2023/06/12 08:05:54;;;;;;;;;;;;;;;20.64;32.39;102137.72;107294;1260;60413;-85
2023/06/12 08:08:21;;;;;;;;;;;;;;;20.65;32.34;102136.83;107360;1260;124778;-85
2023/06/12 08:10:54;;;;;;;;;;;;;;;20.68;32.48;102133.81;107259;1260;67686;-85
2023/06/12 08:13:20;;;;;;;;;;;;;;;20.69;32.71;102131.85;106920;1260;124237;-84
2023/06/12 08:15:48;;;;;;;;;;;;;;;20.70;32.67;102128.84;106851;1266;60976;-85
2023/06/12 08:18:21;;;;;;;;;;;;;;;20.73;32.85;102127.23;106811;1261;60632;-85
2023/06/12 08:20:50;;;;;;;;;;;;;;;20.75;32.88;102124.76;106862;1260;124968;-84
2023/06/12 08:23:19;;;;;;;;;;;;;;;20.75;32.83;102124.40;107032;1260;67096;-84
2023/06/12 08:25:45;;;;;;;;;;;;;;;20.78;32.69;102119.23;107010;1260;124298;-85
2023/06/12 08:28:12;;;;;;;;;;;;;;;20.78;32.74;102119.23;107112;1260;61383;-85
2023/06/12 08:30:40;;;;;;;;;;;;;;;20.80;32.80;102116.02;106985;1260;61053;-86
2023/06/12 08:33:07;;;;;;;;;;;;;;;20.79;32.88;102111.03;106857;1264;124439;-86
2023/06/12 08:35:50;;;;;;;;;;;;;;;;;;;;;
2023/06/12 08:38:19;;;;;;;;;;;;;;;20.90;33.45;102110.02;107823;1264;125133;-84
2023/06/12 08:40:52;;;;;;;;;;;;;;;20.95;33.87;102111.98;107247;1260;61937;-84
2023/06/12 08:43:19;;;;;;;;;;;;;;;20.94;34.01;102108.06;107002;1261;124454;-84
2023/06/12 08:45:45;;;;;;;;;;;;;;;20.91;34.19;102106.63;106784;1267;59580;-84
2023/06/12 08:48:15;;;;;;;;;;;;;;;20.88;33.83;102103.75;106985;1261;65597;-84
2023/06/12 08:50:43;;;;;;;;;;;;;;;20.87;33.33;102098.40;106800;1262;124230;-84
2023/06/12 08:53:11;;;;;;;;;;;;;;;20.90;33.01;102101.45;106769;1262;61239;-86
2023/06/12 08:55:39;;;;;;;;;;;;;;;20.86;32.65;102098.40;107187;1260;61959;-83
2023/06/12 08:58:07;;;;;;;;;;;;;;;20.85;32.55;102096.97;107267;1260;74397;-85
2023/06/12 09:00:33;;;;;;;;;;;;;;;20.87;32.28;102096.09;106645;1260;251089;-84
2023/06/12 09:03:04;;;;;;;;;;;;;;;20.86;31.67;102096.62;106683;1260;124298;-85
2023/06/12 09:05:38;;;;;;;;;;;;;;;20.86;31.53;102098.21;106743;1260;59428;-85
2023/06/12 09:08:11;;;;;;;;;;;;;;;20.83;31.65;102090.35;106793;1260;124589;-85
2023/06/12 09:10:38;;;;;;;;;;;;;;;20.85;31.53;102094.28;106905;1260;74521;-85
2023/06/12 09:13:09;;;;;;;;;;;;;;;20.84;30.84;102097.30;107062;1260;126527;-84
2023/06/12 09:15:37;;;;;;;;;;;;;;;20.82;30.62;102097.50;107513;1260;70149;-84
2023/06/12 09:18:12;;;;;;;;;;;;;;;20.81;31.06;102092.84;107286;1260;59784;-85
2023/06/12 09:20:38;;;;;;;;;;;;;;;20.79;30.92;102095.52;107072;1260;124549;-85
2023/06/12 09:23:04;;;;;;;;;;;;;;;20.74;30.48;102093.54;107267;1259;61153;-85
2023/06/12 09:25:35;;;;;;;;;;;;;;;20.72;30.27;102091.74;107159;1260;124253;-84
2023/06/12 09:28:03;;;;;;;;;;;;;;;20.71;30.25;102090.14;107086;1261;70975;-85
2023/06/12 09:30:31;;;;;;;;;;;;;;;20.67;30.17;102098.84;108544;1260;59466;-84
2023/06/12 09:33:00;;;;;;;;;;;;;;;20.60;30.22;102089.88;107891;1260;124214;-84
2023/06/12 09:35:27;;;;;;;;;;;;;;;20.59;30.64;102093.43;106823;1260;74817;-86
2023/06/12 09:37:53;;;;;;;;;;;;;;;20.58;30.52;102091.98;106896;1260;124615;-85
2023/06/12 09:40:20;;;;;;;;;;;;;;;20.62;30.62;102086.52;106868;1267;62310;-84
2023/06/12 09:42:46;;;;;;;;;;;;;;;20.70;30.73;102089.77;107265;1264;59750;-85
2023/06/12 09:45:16;;;;;;;;;;;;;;;20.73;31.28;102093.52;107429;1260;123916;-84
2023/06/12 09:47:43;;;;;;;;;;;;;;;20.74;31.47;102089.61;107400;1260;75110;-84
2023/06/12 09:50:11;;;;;;;;;;;;;;;20.76;31.68;102084.44;106979;1260;124208;-85
2023/06/12 09:52:40;;;;;;;;;;;;;;;20.74;31.82;102081.23;107105;1260;73141;-85
2023/06/12 09:55:08;;;;;;;;;;;;;;;20.74;31.95;102082.48;107297;1261;124266;-86
2023/06/12 09:57:35;;;;;;;;;;;;;;;20.76;32.26;102076.23;107510;1264;59303;-85
2023/06/12 10:00:02;;;;;;;;;;;;;;;20.76;32.08;102076.95;107416;1261;73259;-85
2023/06/12 10:02:29;;;;;;;;;;;;;;;20.80;31.91;102074.28;107123;1260;124566;-86
2023/06/12 10:05:06;;;;;;;;;;;;;;;20.86;31.84;102074.48;107368;1261;61769;-86
2023/06/12 10:07:41;;;;;;;;;;;;;;;20.90;31.66;102076.10;107254;1261;125064;-86
2023/06/12 10:10:08;;;;;;;;;;;;;;;20.88;31.70;102071.80;107091;1262;60034;-86
2023/06/12 10:12:38;;;;;;;;;;;;;;;20.89;32.00;102070.58;107212;1260;73301;-86
2023/06/12 10:15:04;;;;;;;;;;;;;;;20.93;32.18;102072.90;107240;1260;124646;-85
2023/06/12 10:17:33;;;;;;;;;;;;;;;20.94;32.36;102062.39;107247;1260;71821;-86
2023/06/12 10:19:59;;;;;;;;;;;;;;;20.97;32.44;102060.23;107793;1264;124422;-84
2023/06/12 10:22:25;;;;;;;;;;;;;;;20.99;32.77;102060.25;107057;1262;60081;-84
2023/06/12 10:24:58;;;;;;;;;;;;;;;21.00;33.11;102059.02;106994;1260;62307;-84
2023/06/12 10:27:31;;;;;;;;;;;;;;;21.00;33.36;102057.40;106963;1261;66954;-84
2023/06/12 10:30:01;;;;;;;;;;;;;;;20.98;33.44;102060.06;106897;1261;72528;-85
2023/06/12 10:32:34;;;;;;;;;;;;;;;20.96;33.44;102061.30;107014;1260;124211;-85
2023/06/12 10:35:03;;;;;;;;;;;;;;;20.93;33.49;102057.56;107102;1261;61072;-85
2023/06/12 10:37:31;;;;;;;;;;;;;;;20.90;33.78;102056.66;107024;1260;124822;-85
2023/06/12 10:40:07;;;;;;;;;;;;;;;20.85;33.66;102055.75;106969;1260;66906;-84
2023/06/12 10:42:51;;;;;;;;;;;;;;;20.86;33.87;102050.58;107023;1261;72402;-85
2023/06/12 10:45:19;;;;;;;;;;;;;;;20.93;33.89;102048.99;107156;1260;124416;-85
2023/06/12 10:48:08;;;;;;;;;;;;;;;20.94;33.84;102057.73;107309;1260;60093;-85
2023/06/12 10:51:06;;;;;;;;;;;;;;;20.96;33.89;102050.43;107554;1260;124303;-85
2023/06/12 10:53:36;;;;;;;;;;;;;;;20.93;33.91;102053.11;107229;1260;67007;-85
2023/06/12 10:56:05;;;;;;;;;;;;;;;20.93;33.86;102046.50;107192;1260;124688;-86
2023/06/12 10:58:41;;;;;;;;;;;;;;;20.96;33.82;102045.98;107095;1260;61087;-85
2023/06/12 11:01:09;;;;;;;;;;;;;;;20.97;33.68;102042.22;107027;1261;124371;-84
2023/06/12 11:03:36;;;;;;;;;;;;;;;20.97;33.57;102049.00;107004;1260;74523;-85
2023/06/12 11:06:13;;;;;;;;;;;;;;;20.96;33.45;102042.94;107170;1260;65862;-85
2023/06/12 11:08:42;;;;;;;;;;;;;;;20.96;33.41;102037.05;107110;1260;124159;-85
2023/06/12 11:11:09;;;;;;;;;;;;;;;20.97;33.10;102034.55;107173;1260;59706;-85
2023/06/12 11:13:40;;;;;;;;;;;;;;;21.01;32.90;102038.85;107078;1260;125284;-86
2023/06/12 11:16:07;;;;;;;;;;;;;;;21.03;32.74;102027.42;107331;1260;75832;-85
2023/06/12 11:18:34;;;;;;;;;;;;;;;21.06;32.66;102019.94;107597;1260;66005;-85
2023/06/12 11:21:09;;;;;;;;;;;;;;;21.12;32.41;102014.95;107013;1261;124128;-85
2023/06/12 11:23:37;;;;;;;;;;;;;;;21.16;32.43;102014.95;106882;1261;61811;-85
2023/06/12 11:26:07;;;;;;;;;;;;;;;21.20;32.29;102009.08;107128;1260;124181;-84
2023/06/12 11:28:33;;;;;;;;;;;;;;;21.26;31.98;102010.50;107167;1265;75378;-82
2023/06/12 11:31:02;;;;;;;;;;;;;;;21.27;31.64;102004.26;107065;1266;124362;-82
2023/06/12 11:33:31;;;;;;;;;;;;;;;21.26;31.29;102003.90;106887;1260;72468;-82
2023/06/12 11:36:00;;;;;;;;;;;;;;;21.20;31.01;102002.10;107165;1260;61316;-82
2023/06/12 11:38:27;;;;;;;;;;;;;;;21.12;30.71;102006.73;107102;1260;124415;-81
2023/06/12 11:40:53;;;;;;;;;;;;;;;21.10;30.59;102008.16;107288;1260;59438;-81
2023/06/12 11:43:20;;;;;;;;;;;;;;;21.12;30.68;101999.42;107407;1260;60116;-82
2023/06/12 11:45:47;;;;;;;;;;;;;;;21.15;30.45;102003.52;107219;1261;73635;-82
2023/06/12 11:48:14;;;;;;;;;;;;;;;21.15;30.39;101999.96;107132;1260;61241;-82
2023/06/12 11:50:44;;;;;;;;;;;;;;;21.15;30.27;102000.14;107129;1260;124668;-81
2023/06/12 11:53:11;;;;;;;;;;;;;;;21.14;29.90;102001.04;107534;1260;75001;-82
2023/06/12 11:55:37;;;;;;;;;;;;;;;21.14;29.92;102005.50;107192;1265;125950;-81
2023/06/12 11:58:08;;;;;;;;;;;;;;;21.15;29.67;102001.75;107346;1260;59284;-82
2023/06/12 12:00:40;;;;;;;;;;;;;;;21.15;29.25;101992.46;107236;1261;61802;-83
2023/06/12 12:03:09;;;;;;;;;;;;;;;21.21;29.26;101997.81;107278;1260;124212;-83
2023/06/12 12:05:40;;;;;;;;;;;;;;;21.23;29.33;101992.65;106876;1261;74653;-84
2023/06/12 12:08:08;;;;;;;;;;;;;;;21.26;29.21;101994.97;106980;1260;124276;-83
2023/06/12 12:10:39;;;;;;;;;;;;;;;21.22;28.92;101990.86;107000;1260;71484;-83
2023/06/12 12:13:06;;;;;;;;;;;;;;;21.21;28.59;101989.96;107130;1264;124876;-82
2023/06/12 12:15:36;;;;;;;;;;;;;;;21.24;28.31;101984.08;107374;1260;60893;-82
2023/06/12 12:18:03;;;;;;;;;;;;;;;21.26;28.13;101993.90;107037;1264;72223;-82
2023/06/12 12:20:30;;;;;;;;;;;;;;;21.23;28.16;101982.65;108493;1260;124304;-81
2023/06/12 12:23:03;;;;;;;;;;;;;;;21.23;28.43;101989.61;106860;1260;72540;-81
2023/06/12 12:25:32;;;;;;;;;;;;;;;21.20;28.57;101985.33;106933;1262;124252;-82
2023/06/12 12:28:03;;;;;;;;;;;;;;;21.16;28.49;101987.64;107167;1260;61589;-82
2023/06/12 12:30:30;;;;;;;;;;;;;;;21.15;28.48;101988.54;107156;1264;76556;-82
2023/06/12 12:32:57;;;;;;;;;;;;;;;21.14;28.62;101983.18;107019;1260;124318;-82
2023/06/12 12:35:23;;;;;;;;;;;;;;;21.18;28.34;101984.96;107275;1262;73188;-82
2023/06/12 12:37:52;;;;;;;;;;;;;;;21.18;28.40;101980.68;107333;1261;124395;-82